Time;durP1;ratioP1;P1;durP2;ratioP2;P2;SDS_P1;SDS_P2;PMS_P1;PMS_P2;Temp;Humidity;BMP_temperature;BMP_pressure;BME280_temperature;BME280_humidity;BME280_pressure;Samples;Min_cycle;Max_cycle;Signal;HPM_P1;HPM_P2
2022/04/30 00:01:50;;;;;;;9.00;6.10;;;7.00;99.90;;;;;;5057004;28;20040;-69
2022/04/30 00:04:16;;;;;;;11.05;6.82;;;7.00;99.90;;;;;;5073883;28;20045;-69
2022/04/30 00:06:42;;;;;;;8.18;6.60;;;7.00;99.90;;;;;;5073817;28;20051;-69
2022/04/30 00:09:07;;;;;;;11.70;7.50;;;7.00;99.90;;;;;;5073455;28;20036;-69
2022/04/30 00:11:33;;;;;;;17.55;7.70;;;6.90;99.90;;;;;;5056860;28;20045;-69
2022/04/30 00:13:58;;;;;;;11.55;6.95;;;6.90;99.90;;;;;;5073416;28;20041;-69
2022/04/30 00:16:24;;;;;;;15.18;8.02;;;6.90;99.90;;;;;;5073330;28;20044;-69
2022/04/30 00:18:49;;;;;;;13.10;7.50;;;6.90;99.90;;;;;;5073362;28;20037;-69
2022/04/30 00:21:15;;;;;;;12.15;6.88;;;6.90;99.90;;;;;;5073274;28;20131;-69
2022/04/30 00:23:41;;;;;;;13.43;7.35;;;6.90;99.90;;;;;;5073210;28;20136;-69
2022/04/30 00:26:07;;;;;;;14.13;7.68;;;6.90;99.90;;;;;;5073223;28;20072;-69
2022/04/30 00:28:32;;;;;;;11.88;6.97;;;6.90;99.90;;;;;;5073074;28;20051;-69
2022/04/30 00:30:59;;;;;;;14.23;7.63;;;6.80;99.90;;;;;;5073375;28;20044;-69
2022/04/30 00:33:25;;;;;;;10.32;7.28;;;6.80;99.90;;;;;;5073290;28;20059;-69
2022/04/30 00:35:51;;;;;;;10.25;7.60;;;6.80;99.90;;;;;;5072932;28;20511;-69
2022/04/30 00:38:16;;;;;;;12.00;7.30;;;6.80;99.90;;;;;;5072885;28;20090;-69
2022/04/30 00:40:43;;;;;;;10.40;6.80;;;6.80;99.90;;;;;;5072851;28;20040;-69
2022/04/30 00:43:08;;;;;;;14.63;7.43;;;6.70;99.90;;;;;;5073094;28;20040;-69
2022/04/30 00:45:34;;;;;;;13.18;7.25;;;6.70;99.90;;;;;;5072752;28;20519;-69
2022/04/30 00:48:00;;;;;;;10.80;7.15;;;6.70;99.90;;;;;;5072275;28;20037;-69
2022/04/30 00:50:30;;;;;;;9.80;7.20;;;6.60;99.90;;;;;;5072351;28;20040;-69
2022/04/30 00:52:57;;;;;;;10.70;6.65;;;6.70;99.90;;;;;;5072651;28;20040;-69
2022/04/30 00:55:27;;;;;;;10.93;7.68;;;6.60;99.90;;;;;;5072568;28;20036;-69
2022/04/30 00:57:54;;;;;;;9.95;7.10;;;6.60;99.90;;;;;;5072596;28;20040;-69
2022/04/30 01:00:20;;;;;;;12.27;7.20;;;6.60;99.90;;;;;;5072476;28;20512;-68
2022/04/30 01:02:45;;;;;;;9.55;7.25;;;6.50;99.90;;;;;;5072720;28;20089;-68
2022/04/30 01:05:11;;;;;;;10.98;7.07;;;6.50;99.90;;;;;;5072334;28;20408;-68
2022/04/30 01:07:39;;;;;;;13.32;7.82;;;6.50;99.90;;;;;;5072311;28;20115;-68
2022/04/30 01:10:06;;;;;;;12.63;7.57;;;6.50;99.90;;;;;;5072340;28;20072;-68
2022/04/30 01:12:32;;;;;;;11.48;7.20;;;6.40;99.90;;;;;;5072526;28;20040;-68
2022/04/30 01:14:58;;;;;;;14.82;7.50;;;6.40;99.90;;;;;;5072277;28;20054;-68
2022/04/30 01:17:23;;;;;;;9.55;7.30;;;6.40;99.90;;;;;;5072258;28;20079;-68
2022/04/30 01:19:49;;;;;;;12.95;8.02;;;6.40;99.90;;;;;;5072235;28;20040;-69
2022/04/30 01:22:49;;;;;;;9.75;7.35;;;6.40;99.90;;;;;;5072153;28;20040;-69
2022/04/30 01:25:16;;;;;;;10.65;7.15;;;6.40;99.90;;;;;;5066641;28;20068;-69
2022/04/30 01:27:42;;;;;;;11.48;7.45;;;6.30;99.90;;;;;;5072222;28;20053;-69
2022/04/30 01:30:10;;;;;;;11.15;8.05;;;6.30;99.90;;;;;;5072312;28;20035;-69
2022/04/30 01:38:13;;;;;;;11.00;7.35;;;6.30;99.90;;;;;;5071952;28;20049;-69
2022/04/30 01:40:39;;;;;;;11.85;7.60;;;6.30;99.90;;;;;;5071905;28;20036;-69
2022/04/30 01:43:05;;;;;;;9.23;7.05;;;6.30;99.90;;;;;;5071903;28;20036;-69
2022/04/30 01:45:33;;;;;;;11.07;7.57;;;6.30;99.90;;;;;;5072056;28;20044;-69
2022/04/30 01:48:00;;;;;;;11.32;7.65;;;6.30;99.90;;;;;;5071688;28;20048;-69
2022/04/30 01:50:26;;;;;;;11.15;7.75;;;6.30;99.90;;;;;;5071775;28;20041;-69
2022/04/30 01:52:52;;;;;;;12.48;7.50;;;6.40;99.90;;;;;;5055102;28;20079;-69
2022/04/30 01:55:18;;;;;;;13.18;7.68;;;6.40;99.90;;;;;;5071699;28;20064;-69
2022/04/30 01:57:44;;;;;;;11.60;7.80;;;6.40;99.90;;;;;;5071730;28;20094;-69
2022/04/30 02:00:14;;;;;;;15.27;7.55;;;6.40;99.90;;;;;;5071493;28;20519;-68
2022/04/30 02:02:43;;;;;;;10.88;7.22;;;6.40;99.90;;;;;;5071626;28;20072;-68
2022/04/30 02:05:09;;;;;;;10.45;7.78;;;6.40;99.90;;;;;;5071604;28;20493;-68
2022/04/30 02:07:58;;;;;;;12.25;7.28;;;6.40;99.90;;;;;;5071668;28;20043;-69
2022/04/30 02:10:24;;;;;;;12.05;7.13;;;6.40;99.90;;;;;;5071931;28;20044;-69
2022/04/30 02:12:51;;;;;;;11.38;7.57;;;6.40;99.90;;;;;;5071600;28;20085;-69
2022/04/30 02:15:18;;;;;;;12.75;7.78;;;6.40;99.90;;;;;;5071490;28;20059;-69
2022/04/30 02:17:46;;;;;;;11.88;7.60;;;6.30;99.90;;;;;;5071522;28;20041;-69
2022/04/30 02:20:22;;;;;;;13.80;8.43;;;6.30;99.90;;;;;;5071823;28;20102;-69
2022/04/30 02:22:49;;;;;;;11.82;7.70;;;6.30;99.90;;;;;;5055166;28;20060;-69
2022/04/30 02:25:16;;;;;;;15.05;8.70;;;6.20;99.90;;;;;;5071384;28;20448;-69
2022/04/30 02:27:47;;;;;;;13.35;8.20;;;6.20;99.90;;;;;;5071398;28;20127;-69
2022/04/30 02:30:17;;;;;;;12.90;8.45;;;6.20;99.90;;;;;;5071471;28;20041;-69
2022/04/30 02:33:10;;;;;;;13.27;8.15;;;6.20;99.90;;;;;;5071373;28;20040;-69
2022/04/30 02:35:41;;;;;;;11.63;7.55;;;6.30;99.90;;;;;;5067197;28;20045;-68
2022/04/30 02:38:10;;;;;;;13.60;7.72;;;6.20;99.90;;;;;;5071391;28;20048;-68
2022/04/30 02:40:37;;;;;;;12.43;7.97;;;6.20;99.90;;;;;;5071294;28;20051;-68
2022/04/30 02:43:08;;;;;;;13.07;7.75;;;6.20;99.90;;;;;;5071336;28;20523;-68
2022/04/30 02:45:35;;;;;;;10.13;7.70;;;6.20;99.90;;;;;;5071253;28;20036;-69
2022/04/30 02:48:02;;;;;;;10.35;7.47;;;6.20;99.90;;;;;;5054297;28;20090;-69
2022/04/30 02:50:29;;;;;;;14.05;7.32;;;6.20;99.90;;;;;;5054433;28;20488;-69
2022/04/30 02:52:55;;;;;;;12.68;7.00;;;6.20;99.90;;;;;;5071465;28;20037;-69
2022/04/30 02:55:21;;;;;;;11.52;7.03;;;6.30;99.90;;;;;;5071154;28;20093;-69
2022/04/30 03:00:47;;;;;;;13.43;7.43;;;6.30;99.90;;;;;;5071241;28;20041;-69
2022/04/30 03:03:15;;;;;;;12.85;6.90;;;6.40;99.90;;;;;;5071178;28;20086;-69
2022/04/30 03:05:43;;;;;;;12.23;7.35;;;6.30;99.90;;;;;;5071080;28;20077;-69
2022/04/30 03:08:23;;;;;;;9.93;6.70;;;6.40;99.90;;;;;;5071276;28;20119;-69
2022/04/30 03:10:53;;;;;;;10.77;6.45;;;6.40;99.90;;;;;;5071062;28;20041;-69
2022/04/30 03:13:20;;;;;;;10.85;6.80;;;6.40;99.90;;;;;;5057278;28;20028;-69
2022/04/30 03:15:48;;;;;;;12.68;6.35;;;6.40;99.90;;;;;;5074745;28;20063;-69
2022/04/30 03:23:30;;;;;;;11.63;7.50;;;6.40;99.90;;;;;;5074657;28;20060;-69
2022/04/30 03:25:56;;;;;;;10.70;6.88;;;6.50;99.90;;;;;;5074569;28;20172;-69
2022/04/30 03:28:21;;;;;;;12.20;6.95;;;6.40;99.90;;;;;;5074275;28;20418;-69
2022/04/30 03:30:47;;;;;;;9.23;6.63;;;6.40;99.90;;;;;;5074573;28;20085;-69
2022/04/30 03:33:13;;;;;;;9.55;6.57;;;6.40;99.90;;;;;;5074232;28;20503;-69
2022/04/30 03:35:39;;;;;;;9.77;6.95;;;6.40;99.90;;;;;;5074166;28;20407;-69
2022/04/30 03:38:08;;;;;;;12.98;7.28;;;6.40;99.90;;;;;;5057425;28;20047;-69
2022/04/30 03:40:35;;;;;;;9.82;6.90;;;6.50;99.90;;;;;;5074076;28;20090;-69
2022/04/30 03:43:01;;;;;;;10.93;7.20;;;6.40;99.90;;;;;;5074105;28;20051;-69
2022/04/30 03:45:28;;;;;;;11.73;6.90;;;6.40;99.90;;;;;;5073934;28;20040;-69
2022/04/30 03:47:54;;;;;;;11.90;7.35;;;6.30;99.90;;;;;;5073761;28;20078;-69
2022/04/30 03:50:19;;;;;;;12.57;7.10;;;6.30;99.90;;;;;;5057474;28;20041;-69
2022/04/30 03:52:45;;;;;;;9.90;7.22;;;6.30;99.90;;;;;;5073874;28;20124;-69
2022/04/30 03:55:10;;;;;;;10.82;7.18;;;6.20;99.90;;;;;;5057084;28;20064;-69
2022/04/30 03:57:36;;;;;;;14.80;7.47;;;6.20;99.90;;;;;;5073786;28;20090;-69
2022/04/30 04:00:06;;;;;;;11.05;7.35;;;6.20;99.90;;;;;;5073723;28;20045;-69
2022/04/30 04:02:32;;;;;;;13.38;7.70;;;6.20;99.90;;;;;;5073721;28;20131;-69
2022/04/30 04:04:58;;;;;;;11.43;7.47;;;6.20;99.90;;;;;;5073836;28;20131;-69
2022/04/30 04:07:24;;;;;;;13.07;6.93;;;6.10;99.90;;;;;;5073601;28;20076;-69
2022/04/30 04:09:49;;;;;;;10.90;7.25;;;6.10;99.90;;;;;;5073512;28;20045;-69
2022/04/30 04:12:15;;;;;;;9.77;6.65;;;6.10;99.90;;;;;;5073570;28;20040;-69
2022/04/30 04:17:41;;;;;;;9.40;7.03;;;6.20;99.90;;;;;;5073448;28;20036;-69
2022/04/30 04:20:13;;;;;;;12.05;7.00;;;6.20;99.90;;;;;;5073657;28;20125;-69
2022/04/30 04:22:39;;;;;;;9.45;6.80;;;6.20;99.90;;;;;;5056757;28;20105;-69
2022/04/30 04:27:54;;;;;;;12.70;7.57;;;6.20;99.90;;;;;;5073122;28;20049;-69
2022/04/30 04:30:24;;;;;;;11.27;7.30;;;6.10;99.90;;;;;;5056445;28;20089;-69
2022/04/30 04:32:50;;;;;;;10.82;7.57;;;6.20;99.90;;;;;;5073333;28;20037;-69
2022/04/30 04:35:16;;;;;;;17.55;8.07;;;6.20;99.90;;;;;;5072931;28;20044;-69
2022/04/30 04:37:43;;;;;;;14.77;7.53;;;6.20;99.90;;;;;;5072961;28;20041;-69
2022/04/30 04:40:11;;;;;;;11.60;7.95;;;6.20;99.90;;;;;;5072934;28;20040;-69
2022/04/30 04:42:37;;;;;;;9.88;6.97;;;6.20;99.90;;;;;;5072887;28;20102;-69
2022/04/30 04:45:04;;;;;;;13.45;8.05;;;6.20;99.90;;;;;;5072985;28;20036;-69
2022/04/30 04:47:30;;;;;;;14.43;7.93;;;6.20;99.90;;;;;;5072640;28;20047;-69
2022/04/30 04:49:55;;;;;;;11.05;7.82;;;6.20;99.90;;;;;;5072708;28;20041;-69
2022/04/30 04:52:24;;;;;;;11.57;7.38;;;6.30;99.90;;;;;;5072652;28;20043;-69
2022/04/30 04:54:50;;;;;;;12.75;7.13;;;6.30;99.90;;;;;;5072575;28;20036;-69
2022/04/30 04:57:16;;;;;;;11.60;6.43;;;6.40;99.90;;;;;;5072652;28;20123;-69
2022/04/30 04:59:42;;;;;;;11.82;7.38;;;6.50;99.90;;;;;;5056212;28;20037;-69
2022/04/30 05:02:07;;;;;;;12.05;7.20;;;6.50;99.90;;;;;;5072584;28;20496;-69
2022/04/30 05:04:33;;;;;;;12.70;7.32;;;6.50;99.90;;;;;;5072458;28;20097;-69
2022/04/30 05:07:00;;;;;;;15.95;7.95;;;6.60;99.90;;;;;;5072645;28;20051;-69
2022/04/30 05:09:28;;;;;;;11.13;7.43;;;6.50;99.90;;;;;;5072325;28;20051;-69
2022/04/30 05:11:54;;;;;;;13.60;8.02;;;6.60;99.90;;;;;;5072351;28;20123;-69
2022/04/30 05:14:20;;;;;;;11.80;8.05;;;6.60;99.90;;;;;;5072276;28;20075;-69
2022/04/30 05:16:46;;;;;;;10.52;8.30;;;6.70;99.90;;;;;;5072171;28;20028;-69
2022/04/30 05:19:11;;;;;;;12.95;7.60;;;6.70;99.90;;;;;;5072492;28;20032;-69
2022/04/30 05:21:37;;;;;;;11.50;7.47;;;6.70;99.90;;;;;;5072221;28;20471;-69
2022/04/30 05:24:03;;;;;;;11.68;7.70;;;6.80;99.90;;;;;;5055527;28;20048;-68
2022/04/30 05:26:28;;;;;;;11.15;8.30;;;6.80;99.90;;;;;;5072303;28;20036;-68
2022/04/30 05:28:54;;;;;;;10.52;8.15;;;6.90;99.90;;;;;;5072260;28;20409;-68
2022/04/30 05:31:19;;;;;;;14.27;7.72;;;7.00;99.90;;;;;;5072366;28;20404;-68
2022/04/30 05:33:45;;;;;;;10.75;7.32;;;7.10;99.90;;;;;;5072160;28;20432;-69
2022/04/30 05:36:11;;;;;;;12.80;9.20;;;7.10;99.90;;;;;;5071746;28;20083;-69
2022/04/30 05:38:36;;;;;;;9.23;7.32;;;7.20;99.90;;;;;;5071999;28;20047;-69
2022/04/30 05:41:02;;;;;;;11.68;8.13;;;7.20;99.90;;;;;;5072254;28;20100;-69
2022/04/30 05:43:28;;;;;;;12.75;7.25;;;7.30;99.90;;;;;;5055234;28;20042;-68
2022/04/30 05:45:54;;;;;;;13.68;7.95;;;7.30;99.90;;;;;;5071855;28;20032;-68
2022/04/30 05:48:20;;;;;;;11.43;8.30;;;7.40;99.90;;;;;;5071603;28;20106;-69
2022/04/30 05:50:45;;;;;;;11.13;7.70;;;7.40;99.90;;;;;;5071819;28;20115;-69
2022/04/30 05:53:11;;;;;;;11.75;8.15;;;7.50;99.90;;;;;;5055422;28;20037;-69
2022/04/30 05:55:37;;;;;;;14.23;8.50;;;7.50;99.90;;;;;;5072314;28;20496;-69
2022/04/30 05:58:03;;;;;;;10.52;7.95;;;7.60;99.90;;;;;;5072609;28;20118;-69
2022/04/30 06:00:28;;;;;;;9.25;7.07;;;7.70;99.90;;;;;;5071757;28;20044;-69
2022/04/30 06:02:55;;;;;;;14.05;8.07;;;7.80;99.90;;;;;;5072068;28;20123;-69
2022/04/30 06:05:21;;;;;;;12.13;7.03;;;7.80;99.90;;;;;;5055016;28;20028;-69
2022/04/30 06:07:47;;;;;;;10.23;7.60;;;7.90;99.90;;;;;;5071734;28;20076;-69
2022/04/30 06:10:12;;;;;;;11.07;7.75;;;8.00;99.90;;;;;;5071606;28;20076;-69
2022/04/30 06:12:38;;;;;;;14.45;7.45;;;8.10;99.90;;;;;;5071903;28;20036;-69
2022/04/30 06:15:05;;;;;;;13.60;8.18;;;8.20;99.90;;;;;;5071738;28;20044;-69
2022/04/30 06:17:30;;;;;;;10.88;6.90;;;8.30;99.90;;;;;;5071815;28;20492;-69
2022/04/30 06:19:56;;;;;;;15.13;7.20;;;8.40;99.90;;;;;;5071629;28;20123;-69
2022/04/30 06:22:21;;;;;;;13.70;7.47;;;8.40;99.90;;;;;;5071810;28;20182;-69
2022/04/30 06:24:47;;;;;;;10.25;7.07;;;8.50;99.90;;;;;;5071725;28;20109;-69
2022/04/30 06:27:12;;;;;;;12.95;6.88;;;8.50;99.90;;;;;;5071583;28;20409;-69
2022/04/30 06:29:41;;;;;;;13.82;7.25;;;8.60;99.90;;;;;;5071503;28;20052;-69
2022/04/30 06:32:07;;;;;;;13.05;7.35;;;8.70;99.90;;;;;;5071498;28;20044;-69
2022/04/30 06:34:32;;;;;;;16.67;7.45;;;8.80;99.90;;;;;;5071463;28;20036;-69
2022/04/30 06:36:58;;;;;;;12.00;7.00;;;8.90;99.90;;;;;;5071320;28;20033;-69
2022/04/30 06:39:23;;;;;;;11.68;6.82;;;9.00;99.90;;;;;;5072667;28;20470;-69
2022/04/30 06:41:49;;;;;;;11.45;6.50;;;9.00;99.90;;;;;;5071408;28;20483;-69
2022/04/30 06:44:14;;;;;;;9.48;6.57;;;9.10;99.90;;;;;;5071374;28;20101;-69
2022/04/30 06:46:40;;;;;;;12.27;6.18;;;9.20;99.90;;;;;;5071628;28;20048;-69
2022/04/30 06:49:06;;;;;;;10.70;5.93;;;9.30;99.90;;;;;;5075103;28;20047;-69
2022/04/30 06:51:31;;;;;;;10.27;6.07;;;9.30;99.90;;;;;;5075123;28;20037;-69
2022/04/30 06:59:28;;;;;;;11.68;6.38;;;9.50;99.90;;;;;;5074974;28;20504;-69
2022/04/30 07:02:05;;;;;;;9.30;5.82;;;9.60;99.90;;;;;;5074907;28;20055;-69
2022/04/30 07:04:32;;;;;;;14.63;6.32;;;9.60;99.90;;;;;;5074877;28;20144;-69
2022/04/30 07:06:59;;;;;;;11.35;6.07;;;9.60;99.90;;;;;;5074726;28;20040;-69
2022/04/30 07:09:28;;;;;;;14.55;6.18;;;9.60;99.90;;;;;;5074676;28;20553;-69
2022/04/30 07:11:54;;;;;;;9.90;6.00;;;9.60;99.90;;;;;;5058543;28;20060;-69
2022/04/30 07:14:20;;;;;;;12.68;6.03;;;9.60;99.90;;;;;;5074886;28;20115;-69
2022/04/30 07:16:45;;;;;;;9.25;6.43;;;9.70;99.90;;;;;;5075291;28;20068;-69
2022/04/30 07:19:11;;;;;;;10.73;6.00;;;9.70;99.90;;;;;;5074865;28;20048;-69
2022/04/30 07:21:37;;;;;;;11.18;5.60;;;9.80;99.90;;;;;;5075089;28;20052;-69
2022/04/30 07:24:03;;;;;;;11.45;5.63;;;9.90;99.90;;;;;;5074660;28;20415;-69
2022/04/30 07:26:28;;;;;;;9.18;5.00;;;10.00;99.90;;;;;;5058248;28;20048;-69
2022/04/30 07:28:54;;;;;;;11.15;5.45;;;10.10;99.90;;;;;;5074496;28;20037;-69
2022/04/30 07:31:20;;;;;;;8.90;5.03;;;10.10;99.90;;;;;;5074383;28;20093;-69
2022/04/30 07:33:47;;;;;;;10.88;5.03;;;10.20;99.90;;;;;;5057628;28;20040;-69
2022/04/30 07:36:12;;;;;;;8.45;5.75;;;10.30;99.90;;;;;;5074434;28;20048;-69
2022/04/30 07:38:39;;;;;;;10.13;5.60;;;10.40;99.90;;;;;;5074170;28;20123;-69
2022/04/30 07:41:05;;;;;;;11.60;5.15;;;10.50;99.90;;;;;;5074470;28;20106;-69
2022/04/30 07:43:31;;;;;;;10.23;4.38;;;10.60;99.90;;;;;;5074139;28;20532;-69
2022/04/30 07:45:56;;;;;;;8.43;4.35;;;10.60;99.90;;;;;;5074035;28;20105;-69
2022/04/30 07:48:22;;;;;;;8.23;4.30;;;10.70;99.90;;;;;;5073924;28;20049;-69
2022/04/30 07:50:47;;;;;;;7.20;4.38;;;10.80;99.90;;;;;;5057312;28;20056;-69
2022/04/30 07:53:15;;;;;;;9.90;3.67;;;10.90;99.90;;;;;;5073929;28;20129;-69
2022/04/30 07:55:42;;;;;;;9.38;3.92;;;11.00;99.90;;;;;;5056915;28;20515;-69
2022/04/30 07:58:08;;;;;;;9.98;5.18;;;11.30;99.90;;;;;;5073406;28;20519;-69
2022/04/30 08:00:34;;;;;;;5.93;3.67;;;11.50;99.90;;;;;;5073807;28;20082;-69
2022/04/30 08:03:00;;;;;;;9.75;4.05;;;11.60;99.90;;;;;;5074039;28;20033;-69
2022/04/30 08:05:27;;;;;;;8.65;4.53;;;11.80;99.90;;;;;;5073687;28;20042;-69
2022/04/30 08:07:56;;;;;;;7.40;4.22;;;11.90;99.90;;;;;;5073904;28;20041;-69
2022/04/30 08:10:22;;;;;;;8.60;4.53;;;12.00;99.90;;;;;;5074038;28;20082;-69
2022/04/30 08:12:53;;;;;;;8.20;4.35;;;12.00;99.90;;;;;;5057137;28;20496;-69
2022/04/30 08:15:20;;;;;;;8.80;4.90;;;12.00;99.90;;;;;;5073490;28;20119;-68
2022/04/30 08:17:46;;;;;;;8.75;5.10;;;11.90;99.90;;;;;;5073480;28;20068;-69
2022/04/30 08:20:11;;;;;;;11.07;5.28;;;11.90;99.90;;;;;;5073465;28;20098;-69
2022/04/30 08:22:38;;;;;;;9.20;5.03;;;11.80;99.90;;;;;;5056714;28;20040;-69
2022/04/30 08:25:04;;;;;;;10.00;4.97;;;11.70;99.90;;;;;;5073263;28;20068;-69
2022/04/30 08:27:29;;;;;;;9.43;5.53;;;11.50;99.90;;;;;;5073218;28;20083;-69
2022/04/30 08:29:55;;;;;;;14.02;5.60;;;11.40;99.90;;;;;;5073181;28;20047;-69
2022/04/30 08:32:24;;;;;;;10.65;4.72;;;11.30;99.90;;;;;;5073217;28;20626;-69
2022/04/30 08:34:51;;;;;;;11.88;5.50;;;11.30;99.90;;;;;;5072991;28;20569;-69
2022/04/30 08:37:17;;;;;;;10.77;5.88;;;11.20;99.90;;;;;;5073049;28;20037;-69
2022/04/30 08:39:43;;;;;;;9.88;5.63;;;11.20;99.90;;;;;;5073041;28;20044;-69
2022/04/30 08:42:09;;;;;;;12.30;5.35;;;11.20;99.90;;;;;;5056335;28;20040;-70
2022/04/30 08:44:37;;;;;;;9.25;5.63;;;11.10;99.90;;;;;;5072939;28;20044;-69
2022/04/30 08:47:04;;;;;;;10.77;5.63;;;11.10;99.90;;;;;;5072660;28;20048;-69
2022/04/30 08:49:34;;;;;;;9.90;5.70;;;11.10;99.90;;;;;;5056296;28;20146;-69
2022/04/30 08:52:00;;;;;;;9.75;6.03;;;11.10;99.90;;;;;;5072777;28;20041;-69
2022/04/30 08:54:25;;;;;;;9.25;5.05;;;11.10;99.90;;;;;;5073002;28;20039;-69
2022/04/30 08:56:53;;;;;;;9.40;5.32;;;11.20;99.90;;;;;;5056695;28;20465;-69
2022/04/30 08:59:18;;;;;;;8.30;5.70;;;11.20;99.90;;;;;;5072584;28;20047;-69
2022/04/30 09:01:48;;;;;;;14.63;6.57;;;11.20;99.90;;;;;;5072594;28;20041;-69
2022/04/30 09:04:14;;;;;;;11.48;6.45;;;11.30;99.90;;;;;;5072620;28;20044;-69
2022/04/30 09:06:51;;;;;;;12.23;5.75;;;11.40;99.90;;;;;;5072419;28;20127;-69
2022/04/30 09:09:25;;;;;;;10.98;5.75;;;11.50;99.90;;;;;;5055149;28;20044;-69
2022/04/30 09:11:53;;;;;;;11.13;5.55;;;11.60;99.90;;;;;;5072350;28;20045;-69
2022/04/30 09:14:26;;;;;;;10.07;5.68;;;11.70;99.90;;;;;;5055766;28;20480;-69
2022/04/30 09:17:05;;;;;;;;;;;11.80;99.90;;;;;;5072928;28;20496;-68
2022/04/30 09:19:50;;;;;;;9.32;5.05;;;11.90;99.90;;;;;;5072191;28;20380;-68
2022/04/30 09:22:16;;;;;;;10.73;5.32;;;12.00;99.90;;;;;;5072315;28;20044;-68
2022/04/30 09:24:50;;;;;;;10.05;5.10;;;12.10;99.90;;;;;;5072475;28;20071;-68
2022/04/30 09:27:17;;;;;;;10.02;5.68;;;12.10;99.90;;;;;;5072089;28;20044;-69
2022/04/30 09:29:43;;;;;;;13.90;5.57;;;12.20;99.90;;;;;;5072077;28;20040;-69
2022/04/30 09:32:15;;;;;;;10.68;5.88;;;12.20;99.90;;;;;;5072057;28;20036;-71
2022/04/30 09:37:41;;;;;;;10.50;4.70;;;12.70;99.90;;;;;;5071948;28;20536;-69
2022/04/30 09:40:16;;;;;;;10.75;4.85;;;13.10;99.90;;;;;;5072462;28;20048;-69
2022/04/30 09:42:44;;;;;;;8.63;4.90;;;13.30;99.90;;;;;;5071980;28;20044;-69
2022/04/30 09:45:27;;;;;;;14.52;4.63;;;13.50;99.90;;;;;;5071880;28;20048;-69
2022/04/30 09:47:54;;;;;;;11.23;4.85;;;13.70;99.90;;;;;;5071847;28;20040;-69
2022/04/30 09:55:54;;;;;;;7.75;4.00;;;14.60;99.90;;;;;;5071663;28;20504;-69
2022/04/30 09:58:25;;;;;;;12.32;4.82;;;14.90;99.90;;;;;;5071765;28;20037;-69
2022/04/30 10:01:01;;;;;;;8.10;4.00;;;15.10;99.90;;;;;;5055439;28;20078;-69
2022/04/30 10:03:29;;;;;;;7.63;4.03;;;15.10;99.90;;;;;;5071787;28;20515;-69
2022/04/30 10:06:05;;;;;;;7.03;3.58;;;15.00;99.90;;;;;;5071728;28;20048;-69
2022/04/30 10:08:39;;;;;;;8.95;4.00;;;14.90;98.40;;;;;;5071628;28;20519;-70
2022/04/30 10:11:11;;;;;;;7.85;3.92;;;14.70;96.30;;;;;;5071722;28;20075;-70
2022/04/30 10:13:57;;;;;;;7.38;3.60;;;14.40;99.90;;;;;;5072058;28;20470;-71
2022/04/30 10:16:25;;;;;;;7.43;3.10;;;14.10;98.20;;;;;;5071603;28;20090;-70
2022/04/30 10:19:11;;;;;;;6.47;3.20;;;13.90;98.60;;;;;;5054965;28;20048;-70
2022/04/30 10:21:38;;;;;;;6.57;3.03;;;13.70;98.20;;;;;;5074014;28;20040;-69
2022/04/30 10:24:05;;;;;;;7.80;2.67;;;13.50;99.90;;;;;;5075920;28;20044;-69
2022/04/30 10:26:31;;;;;;;6.72;2.92;;;13.40;99.90;;;;;;5075516;28;20040;-69
2022/04/30 10:29:11;;;;;;;18.58;11.23;;;13.30;99.90;;;;;;5058718;28;20463;-69
2022/04/30 10:31:46;;;;;;;11.13;6.93;;;13.20;99.90;;;;;;5059119;28;20071;-69
2022/04/30 10:34:12;;;;;;;6.60;3.10;;;13.10;99.00;;;;;;5058793;28;20037;-70
2022/04/30 10:36:39;;;;;;;6.82;2.83;;;13.00;99.00;;;;;;5075609;28;20040;-70
2022/04/30 10:39:15;;;;;;;5.53;2.53;;;13.00;99.90;;;;;;5075365;28;20049;-70
2022/04/30 10:41:45;;;;;;;5.75;2.70;;;12.90;99.90;;;;;;5075356;28;20508;-70
2022/04/30 10:44:13;;;;;;;8.30;3.00;;;12.90;99.90;;;;;;5075309;28;20047;-70
2022/04/30 10:46:42;;;;;;;9.32;3.20;;;12.80;99.90;;;;;;5075214;28;20072;-70
2022/04/30 10:49:08;;;;;;;9.70;2.90;;;12.70;99.90;;;;;;5075176;28;20127;-70
2022/04/30 10:51:38;;;;;;;6.35;2.97;;;12.70;99.90;;;;;;5075344;28;20032;-70
2022/04/30 10:54:09;;;;;;;6.30;3.20;;;12.60;99.90;;;;;;5058385;28;20040;-70
2022/04/30 10:56:35;;;;;;;5.28;3.20;;;12.50;99.90;;;;;;5074983;28;20067;-70
2022/04/30 10:59:00;;;;;;;8.93;3.70;;;12.40;99.90;;;;;;5074967;28;20565;-69
2022/04/30 11:01:26;;;;;;;8.15;3.00;;;12.40;99.90;;;;;;5074943;28;20045;-69
2022/04/30 11:03:52;;;;;;;8.57;3.63;;;12.30;99.90;;;;;;5074863;28;20101;-69
2022/04/30 11:06:20;;;;;;;9.38;3.40;;;12.30;99.90;;;;;;5074777;28;20047;-69
2022/04/30 11:09:01;;;;;;;8.88;3.40;;;12.30;99.90;;;;;;5074701;28;20055;-69
2022/04/30 11:11:27;;;;;;;5.30;3.20;;;12.20;99.90;;;;;;5075052;28;20457;-69
2022/04/30 11:14:02;;;;;;;9.00;3.17;;;12.10;99.90;;;;;;5074660;28;20558;-69
2022/04/30 11:16:33;;;;;;;7.00;3.08;;;12.20;99.90;;;;;;5074646;28;20037;-69
2022/04/30 11:19:05;;;;;;;9.27;3.35;;;12.20;99.90;;;;;;5074664;28;20041;-69
2022/04/30 11:21:37;;;;;;;8.95;3.63;;;12.10;99.90;;;;;;5074649;28;20036;-69
2022/04/30 11:24:04;;;;;;;6.75;3.55;;;12.20;99.90;;;;;;5074549;28;20564;-69
2022/04/30 11:26:30;;;;;;;6.72;3.10;;;12.10;99.90;;;;;;5074399;28;20052;-69
2022/04/30 11:28:57;;;;;;;5.55;3.22;;;12.10;99.90;;;;;;5074559;28;20051;-69
2022/04/30 11:31:23;;;;;;;4.97;3.63;;;12.10;99.90;;;;;;5074405;28;20043;-69
2022/04/30 11:33:49;;;;;;;7.20;3.65;;;12.10;99.90;;;;;;5056854;28;20041;-69
2022/04/30 11:36:15;;;;;;;7.82;3.75;;;12.10;99.90;;;;;;5074508;28;20116;-69
2022/04/30 11:38:53;;;;;;;8.32;4.05;;;12.10;99.90;;;;;;5074279;28;20040;-69
2022/04/30 11:41:18;;;;;;;9.15;3.80;;;12.20;99.90;;;;;;5074279;28;20056;-69
2022/04/30 11:43:44;;;;;;;6.78;4.07;;;12.20;99.90;;;;;;5074193;28;20041;-69
2022/04/30 11:46:10;;;;;;;9.63;4.57;;;12.20;99.90;;;;;;5074045;28;20044;-69
2022/04/30 11:48:40;;;;;;;5.85;4.28;;;12.20;99.90;;;;;;5073848;28;20044;-69
2022/04/30 11:51:08;;;;;;;12.20;4.75;;;12.20;99.90;;;;;;5074046;28;20078;-69
2022/04/30 11:53:35;;;;;;;7.88;4.88;;;12.20;99.90;;;;;;5073945;28;20044;-69
2022/04/30 11:56:02;;;;;;;6.80;4.18;;;12.20;99.90;;;;;;5074397;28;20043;-69
2022/04/30 11:58:41;;;;;;;5.15;3.63;;;12.20;99.90;;;;;;5074100;28;20153;-69
2022/04/30 12:01:19;;;;;;;4.70;3.25;;;12.30;99.90;;;;;;5074133;28;20520;-69
2022/04/30 12:03:45;;;;;;;5.75;3.22;;;12.30;99.90;;;;;;5073885;28;20051;-69
2022/04/30 12:06:10;;;;;;;10.05;3.30;;;12.30;99.90;;;;;;5073691;28;20119;-69
2022/04/30 12:08:36;;;;;;;9.85;3.65;;;12.30;99.90;;;;;;5073620;28;20044;-69
2022/04/30 12:11:01;;;;;;;7.78;3.60;;;12.30;99.90;;;;;;5056986;28;20038;-69
2022/04/30 12:13:28;;;;;;;9.60;4.25;;;12.30;99.90;;;;;;5073641;28;20157;-69
2022/04/30 12:16:07;;;;;;;18.05;7.65;;;12.30;99.90;;;;;;5073773;28;20119;-69
2022/04/30 12:27:02;;;;;;;17.55;4.03;;;12.10;99.90;;;;;;5073580;28;20049;-69
2022/04/30 12:29:28;;;;;;;7.53;3.50;;;12.10;99.90;;;;;;5073257;28;20045;-70
2022/04/30 12:31:54;;;;;;;9.23;3.53;;;12.10;99.90;;;;;;5073261;28;20500;-70
2022/04/30 12:34:27;;;;;;;5.15;3.05;;;12.10;99.90;;;;;;5073501;28;20048;-69
2022/04/30 12:37:00;;;;;;;7.07;3.45;;;12.00;99.90;;;;;;5073454;28;20052;-69
2022/04/30 12:39:27;;;;;;;8.48;3.95;;;12.00;99.90;;;;;;5073124;28;20067;-69
2022/04/30 12:41:54;;;;;;;5.45;3.70;;;12.00;99.90;;;;;;5073025;28;20037;-69
2022/04/30 12:44:20;;;;;;;18.55;4.50;;;12.00;99.90;;;;;;5056275;28;20040;-69
2022/04/30 12:46:47;;;;;;;7.05;3.92;;;12.00;99.90;;;;;;5056119;28;20048;-69
2022/04/30 12:49:14;;;;;;;9.95;4.05;;;12.00;99.90;;;;;;5072966;28;20037;-69
2022/04/30 12:51:44;;;;;;;7.40;3.58;;;12.00;99.90;;;;;;5072735;28;20459;-69
2022/04/30 12:54:12;;;;;;;5.47;3.90;;;12.00;99.90;;;;;;5073006;28;20032;-69
2022/04/30 12:56:43;;;;;;;8.70;3.33;;;12.00;99.90;;;;;;5072678;28;20558;-69
2022/04/30 12:59:09;;;;;;;10.05;3.90;;;12.00;99.90;;;;;;5072663;28;20049;-69
2022/04/30 13:01:35;;;;;;;8.93;3.65;;;12.00;99.90;;;;;;5072867;28;20102;-69
2022/04/30 13:04:04;;;;;;;6.78;3.42;;;12.00;99.90;;;;;;5055978;28;20408;-69
2022/04/30 13:06:30;;;;;;;7.45;3.50;;;12.00;99.90;;;;;;5072416;28;20409;-69
2022/04/30 13:14:25;;;;;;;6.30;3.60;;;12.00;99.90;;;;;;5072427;28;20493;-69
2022/04/30 13:16:51;;;;;;;5.72;3.67;;;12.00;99.90;;;;;;5055676;28;20041;-69
2022/04/30 13:19:17;;;;;;;5.18;3.15;;;12.10;99.90;;;;;;5072534;28;20119;-69
2022/04/30 13:21:46;;;;;;;4.68;3.30;;;12.10;99.90;;;;;;5072599;28;20449;-69
2022/04/30 13:24:13;;;;;;;31.35;6.05;;;12.10;99.90;;;;;;5072260;28;20542;-69
2022/04/30 13:26:38;;;;;;;7.70;4.00;;;12.20;99.90;;;;;;5073348;28;20044;-69
2022/04/30 13:29:04;;;;;;;9.90;4.30;;;12.20;99.90;;;;;;5072098;28;20123;-69
2022/04/30 13:31:29;;;;;;;8.50;3.55;;;12.30;99.90;;;;;;5072394;28;20036;-69
2022/04/30 13:33:55;;;;;;;8.75;3.47;;;12.30;99.90;;;;;;5072052;28;20032;-69
2022/04/30 13:36:20;;;;;;;11.10;4.00;;;12.30;99.90;;;;;;5072213;28;20043;-69